createdAt,value
2023-04-02T06:59:51.371Z,77.30
2023-04-02T07:04:46.188Z,76.21
2023-04-02T07:07:13.710Z,77.30
2023-04-02T07:09:42.515Z,77.05
2023-04-02T07:12:14.225Z,77.89
2023-04-02T07:14:41.731Z,77.00
2023-04-02T07:17:18.069Z,76.26
2023-04-02T07:19:49.664Z,76.66
2023-04-02T07:22:19.447Z,77.62
2023-04-02T07:24:47.224Z,77.47
2023-04-02T07:27:15.583Z,77.50
2023-04-02T07:29:43.097Z,75.84
2023-04-02T07:32:14.173Z,76.46
2023-04-02T07:34:42.472Z,77.15
2023-04-02T07:37:14.876Z,75.95
2023-04-02T07:39:42.424Z,76.12
2023-04-02T07:42:10.281Z,76.12
2023-04-02T07:44:37.869Z,74.99
2023-04-02T07:47:05.632Z,75.73
2023-04-02T07:49:33.127Z,75.86
2023-04-02T07:52:00.926Z,74.60
2023-04-02T07:54:28.538Z,74.92
2023-04-02T07:56:56.519Z,75.21
2023-04-02T07:59:24.103Z,75.29
2023-04-02T08:01:53.659Z,75.49
2023-04-02T08:04:23.393Z,75.55
2023-04-02T08:06:52.966Z,75.60
2023-04-02T08:09:20.392Z,75.75
2023-04-02T08:11:47.838Z,75.86
2023-04-02T08:14:15.644Z,74.50
2023-04-02T08:16:53.745Z,73.83
2023-04-02T08:19:22.152Z,73.69
2023-04-02T08:21:52.082Z,74.22
2023-04-02T08:24:21.131Z,73.19
2023-04-02T08:26:51.569Z,74.25
2023-04-02T08:29:19.287Z,74.70
2023-04-02T08:31:46.736Z,73.41
2023-04-02T08:34:14.382Z,72.32
2023-04-02T08:36:45.668Z,70.76
2023-04-02T08:39:13.581Z,70.55
2023-04-02T08:42:44.922Z,67.49
2023-04-02T08:45:58.187Z,66.16
2023-04-02T08:48:25.732Z,65.61
2023-04-02T08:50:53.757Z,65.76
2023-04-02T08:53:32.360Z,64.90
2023-04-02T08:56:24.141Z,64.69
2023-04-02T08:58:57.788Z,65.33
2023-04-02T09:02:07.024Z,65.21
2023-04-02T09:04:37.067Z,64.10
2023-04-02T09:07:04.714Z,64.20
2023-04-02T09:09:39.276Z,63.02
2023-04-02T09:12:29.460Z,62.24
2023-04-02T09:15:34.317Z,60.83
2023-04-02T09:18:19.946Z,60.40
2023-04-02T09:20:49.475Z,59.47
2023-04-02T09:23:24.171Z,60.39
2023-04-02T09:26:04.268Z,59.80
2023-04-02T09:28:32.414Z,58.61
2023-04-02T09:31:37.870Z,59.17
2023-04-02T09:34:34.873Z,58.58
2023-04-02T09:37:25.698Z,59.88
2023-04-02T09:40:09.899Z,58.80
2023-04-02T09:42:38.288Z,58.74
2023-04-02T09:45:35.672Z,58.43
2023-04-02T09:48:14.932Z,59.78
2023-04-02T09:50:42.305Z,57.12
2023-04-02T09:53:33.850Z,56.36
2023-04-02T09:56:24.429Z,59.52
2023-04-02T09:59:16.195Z,58.51
2023-04-02T10:01:57.120Z,58.42
2023-04-02T10:04:49.881Z,57.67
2023-04-02T10:07:45.128Z,56.98
2023-04-02T10:10:46.844Z,58.71
2023-04-02T10:14:02.114Z,57.53
2023-04-02T10:17:11.822Z,57.47
2023-04-02T10:19:47.412Z,56.81
2023-04-02T10:22:22.487Z,56.97
2023-04-02T10:24:51.371Z,55.36
2023-04-02T10:28:34.598Z,55.03
2023-04-02T10:31:48.188Z,52.13
2023-04-02T10:34:54.392Z,53.21
2023-04-02T10:37:45.906Z,50.56
2023-04-02T10:40:47.985Z,49.30
2023-04-02T10:44:20.474Z,47.83
2023-04-02T10:47:32.317Z,46.90
2023-04-02T10:50:15.789Z,47.79
2023-04-02T10:53:45.729Z,48.60
2023-04-02T10:56:14.644Z,54.94
2023-04-02T10:59:26.233Z,56.16
2023-04-02T11:01:58.817Z,56.09
2023-04-02T11:04:42.423Z,56.32
2023-04-02T11:07:22.684Z,55.60
2023-04-02T11:09:56.474Z,54.69
2023-04-02T11:12:49.671Z,55.36
2023-04-02T11:15:20.498Z,55.43
2023-04-02T11:17:48.637Z,55.82
2023-04-02T11:21:03.361Z,55.74
2023-04-02T11:24:01.346Z,55.22
2023-04-02T11:26:47.558Z,54.97
2023-04-02T11:29:29.160Z,54.87
2023-04-02T11:32:25.582Z,55.30
2023-04-02T11:35:06.632Z,53.47
2023-04-02T11:37:45.734Z,52.84
2023-04-02T11:40:16.043Z,51.87
2023-04-02T11:42:50.523Z,50.51
2023-04-02T11:45:52.852Z,47.53
2023-04-02T11:48:20.682Z,47.08
2023-04-02T11:50:48.203Z,48.34
2023-04-02T11:53:15.734Z,47.54
2023-04-02T11:56:06.563Z,49.58
2023-04-02T11:59:30.116Z,50.30
2023-04-02T12:02:28.763Z,50.74
2023-04-02T12:05:54.813Z,50.96
2023-04-02T12:09:23.765Z,49.40
2023-04-02T12:12:00.040Z,47.61
2023-04-02T12:14:51.947Z,48.60
2023-04-02T12:17:36.052Z,47.61
2023-04-02T12:20:09.928Z,45.45
2023-04-02T12:22:53.527Z,44.07
2023-04-02T12:25:40.492Z,44.98
2023-04-02T12:28:11.191Z,46.18
2023-04-02T12:30:40.529Z,47.11
2023-04-02T12:33:23.199Z,46.93
2023-04-02T12:36:02.115Z,47.88
2023-04-02T12:38:48.323Z,48.06
2023-04-02T12:41:33.554Z,47.05
2023-04-02T12:44:15.616Z,45.83
2023-04-02T12:46:45.510Z,45.11
2023-04-02T12:49:45.079Z,43.42
2023-04-02T12:52:20.774Z,43.35
2023-04-02T12:55:03.807Z,43.79
2023-04-02T12:57:34.160Z,44.44
2023-04-02T13:00:21.377Z,46.50
2023-04-02T13:03:05.982Z,46.99
2023-04-02T13:05:56.522Z,47.94
2023-04-02T13:08:33.198Z,48.32
2023-04-02T13:11:05.030Z,47.24
2023-04-02T13:13:43.694Z,47.43
2023-04-02T13:16:20.118Z,48.15
2023-04-02T13:18:50.949Z,47.86
2023-04-02T13:21:21.315Z,48.39
2023-04-02T13:23:48.759Z,48.44
2023-04-02T13:26:28.389Z,48.16
2023-04-02T13:29:36.682Z,48.45
2023-04-02T13:32:13.555Z,47.99
2023-04-02T13:34:41.025Z,48.53
2023-04-02T13:37:13.415Z,49.13
2023-04-02T13:39:40.929Z,48.55
2023-04-02T13:42:11.784Z,48.98
2023-04-02T13:44:39.296Z,49.02
2023-04-02T13:47:07.531Z,48.65
2023-04-02T13:49:35.119Z,47.60
2023-04-02T13:52:05.178Z,47.96
2023-04-02T13:54:51.144Z,48.28
2023-04-02T13:57:19.129Z,49.35
2023-04-02T13:59:46.832Z,51.57
2023-04-02T14:02:23.806Z,52.64
2023-04-02T14:05:37.160Z,52.95
2023-04-02T14:08:48.582Z,52.98
2023-04-02T14:11:59.348Z,53.01
2023-04-02T14:15:13.511Z,52.70
2023-04-02T14:18:33.023Z,56.13
2023-04-02T14:22:09.563Z,56.60
2023-04-02T14:25:24.233Z,58.09
2023-04-02T14:28:15.908Z,56.84
2023-04-02T14:31:12.974Z,57.47
2023-04-02T14:34:34.516Z,62.14
2023-04-02T14:37:28.225Z,60.40
2023-04-02T14:41:04.480Z,57.28
2023-04-02T14:43:52.352Z,56.45
2023-04-02T14:46:24.767Z,56.46
2023-04-02T14:49:09.216Z,55.12
2023-04-02T14:52:14.200Z,57.39
2023-04-02T14:55:04.357Z,55.34
2023-04-02T14:57:49.159Z,56.38
2023-04-02T15:00:45.842Z,55.16
2023-04-02T15:03:24.451Z,55.57
2023-04-02T15:06:09.584Z,52.02
2023-04-02T15:09:15.037Z,51.45
2023-04-02T15:11:57.219Z,50.08
2023-04-02T15:14:51.163Z,48.33
2023-04-02T15:17:21.448Z,46.01
2023-04-02T15:19:49.732Z,45.37
2023-04-02T15:22:51.376Z,44.13
2023-04-02T15:25:55.528Z,44.21
2023-04-02T15:28:40.965Z,45.02
2023-04-02T15:31:15.013Z,43.86
2023-04-02T15:33:46.089Z,43.84
2023-04-02T15:36:47.904Z,45.83
2023-04-02T15:40:02.958Z,43.29
2023-04-02T15:42:42.193Z,43.84
2023-04-02T15:45:12.257Z,42.81
2023-04-02T15:48:42.964Z,41.85
2023-04-02T15:51:26.505Z,40.91
2023-04-02T15:54:31.471Z,40.23
2023-04-02T15:58:08.656Z,40.30
2023-04-02T16:01:01.091Z,39.23
2023-04-02T16:04:19.657Z,40.08
2023-04-02T16:07:23.406Z,39.43
2023-04-02T16:10:41.121Z,40.31
2023-04-02T16:13:39.230Z,41.66
2023-04-02T16:16:42.500Z,42.09
2023-04-02T16:19:51.944Z,40.96
2023-04-02T16:22:30.208Z,42.41
2023-04-02T16:25:19.361Z,43.67
2023-04-02T16:28:39.159Z,42.69
2023-04-02T16:31:26.232Z,42.29
2023-04-02T16:34:47.275Z,42.58
2023-04-02T16:38:07.850Z,42.92
2023-04-02T16:41:37.774Z,43.64
2023-04-02T16:45:03.081Z,43.77
2023-04-02T16:47:47.117Z,44.44
2023-04-02T16:50:45.796Z,44.67
2023-04-02T16:54:09.168Z,44.24
2023-04-02T16:57:06.932Z,45.45
2023-04-02T17:00:13.897Z,45.91
2023-04-02T17:03:58.174Z,46.84
2023-04-02T17:07:30.545Z,46.61
2023-04-02T17:10:30.396Z,47.32
2023-04-02T17:13:46.216Z,48.00
2023-04-02T17:16:33.107Z,48.85
2023-04-02T17:19:02.712Z,49.56
2023-04-02T17:21:32.490Z,50.05
2023-04-02T17:24:28.492Z,49.46
2023-04-02T17:27:32.996Z,50.88
2023-04-02T17:30:45.010Z,52.90
2023-04-02T17:33:18.239Z,55.46
2023-04-02T17:36:32.960Z,55.88
2023-04-02T17:39:53.654Z,57.29
2023-04-02T17:42:58.512Z,56.45
2023-04-02T17:45:57.383Z,57.23
2023-04-02T17:48:47.293Z,57.45
2023-04-02T17:51:48.948Z,58.06
2023-04-02T17:54:51.808Z,58.24
2023-04-02T17:58:05.664Z,58.58
2023-04-02T18:01:07.134Z,58.32
2023-04-02T18:04:16.912Z,58.65
2023-04-02T18:07:12.279Z,58.32
2023-04-02T18:09:54.416Z,58.29
2023-04-02T18:13:36.665Z,57.96
2023-04-02T18:17:21.269Z,59.34
2023-04-02T18:20:09.121Z,61.07
2023-04-02T18:23:09.052Z,61.41
2023-04-02T18:26:19.296Z,62.20
2023-04-02T18:29:41.757Z,62.09
2023-04-02T18:33:07.077Z,62.21
2023-04-02T18:36:02.598Z,61.78
2023-04-02T18:39:06.482Z,61.75
2023-04-02T18:42:13.510Z,61.96
2023-04-02T18:45:21.042Z,62.74
2023-04-02T18:48:41.129Z,62.28
2023-04-02T18:51:31.989Z,62.20
2023-04-02T18:54:56.416Z,62.15
2023-04-02T18:57:34.243Z,61.86
2023-04-02T19:00:29.240Z,61.98
2023-04-02T19:03:52.604Z,63.18
2023-04-02T19:06:35.057Z,63.66
2023-04-02T19:09:20.741Z,62.71
2023-04-02T19:11:49.059Z,63.35
2023-04-02T19:14:23.308Z,62.89
2023-04-02T19:17:44.221Z,63.02
2023-04-02T19:20:11.509Z,63.14
2023-04-02T19:23:42.750Z,63.31
2023-04-02T19:26:19.431Z,62.70
2023-04-02T19:29:04.309Z,63.44
2023-04-02T19:31:47.129Z,64.01
2023-04-02T19:35:03.093Z,64.37
2023-04-02T19:37:55.947Z,65.49
2023-04-02T19:40:54.524Z,64.45
2023-04-02T19:43:22.054Z,64.00
2023-04-02T19:45:50.350Z,64.39
2023-04-02T19:48:34.824Z,64.50
2023-04-02T19:51:02.405Z,64.33
2023-04-02T19:53:29.924Z,64.68
2023-04-02T19:55:57.672Z,64.86
2023-04-02T19:58:36.407Z,65.37
2023-04-02T20:01:04.354Z,65.19
2023-04-02T20:03:32.599Z,66.54
2023-04-02T20:06:00.247Z,66.78
2023-04-02T20:08:28.733Z,67.62
2023-04-02T20:10:58.669Z,67.98
2023-04-02T20:13:26.282Z,67.09
2023-04-02T20:15:54.078Z,67.43
2023-04-02T20:18:21.692Z,67.12
2023-04-02T20:20:49.768Z,67.56
2023-04-02T20:23:18.017Z,68.22
2023-04-02T20:25:57.174Z,68.80
2023-04-02T20:28:27.750Z,68.56
2023-04-02T20:31:05.804Z,69.45
2023-04-02T20:33:33.535Z,69.01
2023-04-02T20:36:15.905Z,70.00
2023-04-02T20:38:45.934Z,69.69
2023-04-02T20:41:16.181Z,70.33
2023-04-02T20:43:43.916Z,70.13
2023-04-02T20:46:12.952Z,70.34
2023-04-02T20:48:41.423Z,70.37
2023-04-02T20:51:14.193Z,70.36
2023-04-02T20:53:42.266Z,70.26
2023-04-02T20:56:17.024Z,70.76
2023-04-02T20:58:44.904Z,69.83
2023-04-02T21:01:27.493Z,70.66
2023-04-02T21:04:04.788Z,71.06
2023-04-02T21:06:38.068Z,72.24
2023-04-02T21:09:14.830Z,72.10
2023-04-02T21:11:42.984Z,72.87
2023-04-02T21:14:11.587Z,73.15
2023-04-02T21:16:41.835Z,72.31
2023-04-02T21:19:10.864Z,73.71
2023-04-02T21:21:39.679Z,71.94
2023-04-02T21:24:09.649Z,71.19
2023-04-02T21:26:41.624Z,72.15
2023-04-02T21:29:11.816Z,71.14
2023-04-02T21:31:42.057Z,71.25
2023-04-02T21:34:15.808Z,71.98
2023-04-02T21:36:50.503Z,72.41
2023-04-02T21:39:24.293Z,72.20
2023-04-02T21:41:53.627Z,71.87
2023-04-02T21:44:24.438Z,71.64
2023-04-02T21:46:54.114Z,72.63
2023-04-02T21:49:23.328Z,72.61
2023-04-02T21:51:51.987Z,71.30
2023-04-02T21:54:20.220Z,72.10
2023-04-02T21:56:48.923Z,72.87
